createdAt,value
2022-11-16T00:00:29.392Z,10.80
2022-11-16T00:02:57.487Z,10.81
2022-11-16T00:05:28.498Z,10.76
2022-11-16T00:07:56.924Z,10.84
2022-11-16T00:10:24.828Z,10.78
2022-11-16T00:12:52.698Z,10.82
2022-11-16T00:15:20.585Z,10.88
2022-11-16T00:17:48.366Z,10.79
2022-11-16T00:20:16.646Z,10.76
2022-11-16T00:22:45.845Z,10.72
2022-11-16T00:25:15.610Z,10.71
2022-11-16T00:27:43.465Z,10.70
2022-11-16T00:30:11.731Z,10.70
2022-11-16T00:32:39.719Z,10.70
2022-11-16T00:35:08.145Z,10.67
2022-11-16T00:37:36.022Z,10.66
2022-11-16T00:40:05.663Z,10.68
2022-11-16T00:42:33.559Z,10.63
2022-11-16T00:45:01.501Z,10.60
2022-11-16T00:47:29.417Z,10.59
2022-11-16T00:50:00.306Z,10.58
2022-11-16T00:52:48.054Z,10.59
2022-11-16T00:55:19.892Z,10.59
2022-11-16T00:57:57.600Z,10.55
2022-11-16T01:00:29.179Z,10.55
2022-11-16T01:03:00.026Z,10.52
2022-11-16T01:05:30.182Z,10.49
2022-11-16T01:08:01.721Z,10.51
2022-11-16T01:10:40.681Z,10.49
2022-11-16T01:13:13.437Z,10.52
2022-11-16T01:15:50.491Z,10.49
2022-11-16T01:18:20.517Z,10.52
2022-11-16T01:20:51.042Z,10.55
2022-11-16T01:26:21.326Z,10.53
2022-11-16T01:28:52.512Z,10.58
2022-11-16T01:31:23.340Z,10.61
2022-11-16T01:33:51.205Z,10.53
2022-11-16T01:36:19.037Z,10.52
2022-11-16T01:38:47.991Z,10.43
2022-11-16T01:41:18.603Z,10.45
2022-11-16T01:43:56.311Z,10.42
2022-11-16T01:46:30.554Z,10.46
2022-11-16T01:49:04.567Z,10.42
2022-11-16T01:51:36.680Z,10.39
2022-11-16T01:54:09.670Z,10.39
2022-11-16T01:56:44.556Z,10.37
2022-11-16T01:59:19.154Z,10.36
2022-11-16T02:02:00.994Z,10.40
2022-11-16T02:04:38.724Z,10.38
2022-11-16T02:07:12.851Z,10.34
2022-11-16T02:10:00.764Z,10.34
2022-11-16T02:12:39.012Z,10.37
2022-11-16T02:15:18.785Z,10.38
2022-11-16T02:18:00.713Z,10.38
2022-11-16T02:20:53.425Z,10.37
2022-11-16T02:23:51.422Z,10.33
2022-11-16T02:26:45.735Z,10.42
2022-11-16T02:29:20.899Z,10.38
2022-11-16T02:32:00.520Z,10.38
2022-11-16T02:34:36.566Z,10.42
2022-11-16T02:37:06.287Z,10.42
2022-11-16T02:39:35.022Z,10.42
2022-11-16T02:42:05.204Z,10.43
2022-11-16T02:44:36.260Z,10.38
2022-11-16T02:47:06.402Z,10.50
2022-11-16T02:49:35.759Z,10.55
2022-11-16T02:52:03.565Z,10.50
2022-11-16T02:54:31.405Z,10.49
2022-11-16T02:57:19.460Z,10.44
2022-11-16T02:59:51.648Z,10.42
2022-11-16T03:02:23.621Z,10.41
2022-11-16T03:04:53.806Z,10.44
2022-11-16T03:07:25.237Z,10.41
2022-11-16T03:09:55.490Z,10.38
2022-11-16T03:12:24.851Z,10.38
2022-11-16T03:14:55.393Z,10.36
2022-11-16T03:17:26.559Z,10.36
2022-11-16T03:19:58.062Z,10.42
2022-11-16T03:22:29.384Z,10.45
2022-11-16T03:24:57.592Z,10.39
2022-11-16T03:27:28.456Z,10.41
2022-11-16T03:30:02.619Z,10.39
2022-11-16T03:32:31.829Z,10.40
2022-11-16T03:35:01.177Z,10.43
2022-11-16T03:37:29.936Z,10.35
2022-11-16T03:39:58.755Z,10.32
2022-11-16T03:42:27.467Z,10.33
2022-11-16T03:44:55.968Z,10.31
2022-11-16T03:47:25.127Z,10.28
2022-11-16T03:49:52.895Z,10.30
2022-11-16T03:52:20.774Z,10.31
2022-11-16T03:54:48.555Z,10.41
2022-11-16T03:57:18.417Z,10.42
2022-11-16T03:59:46.247Z,10.45
2022-11-16T04:02:14.056Z,10.38
2022-11-16T04:05:00.634Z,10.41
2022-11-16T04:07:45.926Z,10.46
2022-11-16T04:10:32.008Z,10.42
2022-11-16T04:13:18.350Z,10.37
2022-11-16T04:16:03.626Z,10.43
2022-11-16T04:18:49.028Z,10.39
2022-11-16T04:21:39.708Z,10.45
2022-11-16T04:24:13.343Z,10.43
2022-11-16T04:27:00.179Z,10.45
2022-11-16T04:29:28.206Z,10.49
2022-11-16T04:32:13.538Z,10.45
2022-11-16T04:34:58.823Z,10.44
2022-11-16T04:37:45.321Z,10.46
2022-11-16T04:40:13.287Z,10.46
2022-11-16T04:42:41.084Z,10.41
2022-11-16T04:45:41.365Z,10.44
2022-11-16T04:48:09.755Z,10.41
2022-11-16T04:50:37.883Z,10.43
2022-11-16T04:53:07.654Z,10.44
2022-11-16T04:55:35.628Z,10.48
2022-11-16T04:58:03.713Z,10.44
2022-11-16T05:00:31.697Z,10.43
2022-11-16T05:03:01.538Z,10.40
2022-11-16T05:05:29.938Z,10.41
2022-11-16T05:07:57.703Z,10.36
2022-11-16T05:10:26.885Z,10.40
2022-11-16T05:12:54.820Z,10.33
2022-11-16T05:15:22.637Z,10.35
2022-11-16T05:17:51.077Z,10.37
2022-11-16T05:20:36.255Z,10.34
2022-11-16T05:23:30.904Z,10.33
2022-11-16T05:26:00.155Z,10.30
2022-11-16T05:28:27.995Z,10.30
2022-11-16T05:30:55.963Z,10.24
2022-11-16T05:33:23.736Z,10.24
2022-11-16T05:35:51.708Z,10.25
2022-11-16T05:38:19.526Z,10.27
2022-11-16T05:40:47.467Z,10.25
2022-11-16T05:43:16.907Z,10.20
2022-11-16T05:45:44.832Z,10.22
2022-11-16T05:48:12.715Z,10.23
2022-11-16T05:50:42.988Z,10.26
2022-11-16T05:53:11.145Z,10.20
2022-11-16T05:55:39.088Z,10.28
2022-11-16T05:58:06.831Z,10.27
2022-11-16T06:00:35.958Z,10.28
2022-11-16T06:03:03.734Z,10.27
2022-11-16T06:05:33.270Z,10.22
2022-11-16T06:08:04.319Z,10.25
2022-11-16T06:10:32.259Z,10.26
2022-11-16T06:13:00.401Z,10.25
2022-11-16T06:15:28.209Z,10.17
2022-11-16T06:17:57.402Z,10.13
2022-11-16T06:20:25.652Z,10.12
2022-11-16T06:22:53.537Z,10.09
2022-11-16T06:25:21.328Z,10.13
2022-11-16T06:27:49.083Z,10.08
2022-11-16T06:30:17.150Z,10.10
2022-11-16T06:32:45.257Z,10.16
2022-11-16T06:35:14.469Z,10.09
2022-11-16T06:37:43.147Z,10.09
2022-11-16T06:40:11.677Z,10.05
2022-11-16T06:42:39.512Z,10.13
2022-11-16T06:45:07.851Z,10.01
2022-11-16T06:47:35.988Z,10.13
2022-11-16T06:50:03.801Z,10.06
2022-11-16T06:52:33.068Z,10.08
2022-11-16T06:55:00.855Z,10.08
2022-11-16T06:57:29.131Z,10.11
2022-11-16T06:59:57.009Z,10.13
2022-11-16T07:02:24.871Z,10.21
2022-11-16T07:04:55.410Z,10.18
2022-11-16T07:07:26.698Z,10.19
2022-11-16T07:09:56.002Z,10.18
2022-11-16T07:12:24.027Z,10.16
2022-11-16T07:14:51.911Z,10.21
2022-11-16T07:17:19.897Z,10.30
2022-11-16T07:19:47.877Z,10.26
2022-11-16T07:22:20.208Z,10.26
2022-11-16T07:24:48.309Z,10.20
2022-11-16T07:27:17.634Z,10.20
2022-11-16T07:29:45.410Z,10.28
2022-11-16T07:32:13.237Z,10.30
2022-11-16T07:34:41.029Z,10.32
2022-11-16T07:37:08.995Z,10.34
2022-11-16T07:39:36.965Z,10.39
2022-11-16T07:42:09.082Z,10.50
2022-11-16T07:44:38.369Z,10.51
2022-11-16T07:47:07.010Z,10.45
2022-11-16T07:49:34.915Z,10.52
2022-11-16T07:52:03.537Z,10.49
2022-11-16T07:54:34.021Z,10.48
2022-11-16T07:57:05.215Z,10.52
2022-11-16T07:59:33.013Z,10.48
2022-11-16T08:02:02.204Z,10.46
2022-11-16T08:04:30.236Z,10.54
2022-11-16T08:06:58.137Z,10.77
2022-11-16T08:09:26.241Z,11.17
2022-11-16T08:11:54.845Z,11.57
2022-11-16T08:14:22.630Z,11.67
2022-11-16T08:16:50.497Z,11.23
2022-11-16T08:19:22.155Z,10.79
2022-11-16T08:21:51.285Z,10.78
2022-11-16T08:24:19.393Z,10.88
2022-11-16T08:26:47.253Z,10.92
2022-11-16T08:29:15.802Z,10.94
2022-11-16T08:31:45.066Z,10.95
2022-11-16T08:34:13.241Z,11.25
2022-11-16T08:36:42.383Z,11.39
2022-11-16T08:39:10.286Z,11.13
2022-11-16T08:41:38.044Z,11.10
2022-11-16T08:44:06.077Z,12.35
2022-11-16T08:46:34.299Z,14.35
2022-11-16T08:49:02.216Z,15.07
2022-11-16T08:51:29.988Z,16.02
2022-11-16T08:53:59.442Z,16.68
2022-11-16T08:56:27.597Z,18.46
2022-11-16T08:58:58.940Z,19.65
2022-11-16T09:01:28.302Z,18.60
2022-11-16T09:03:56.624Z,20.16
2022-11-16T09:06:25.293Z,18.86
2022-11-16T09:08:53.306Z,18.91
2022-11-16T09:11:23.318Z,20.94
2022-11-16T09:13:52.588Z,22.88
2022-11-16T09:16:21.000Z,24.47
2022-11-16T09:18:49.653Z,22.31
2022-11-16T09:21:18.928Z,22.57
2022-11-16T09:23:47.113Z,21.97
2022-11-16T09:26:14.914Z,21.02
2022-11-16T09:28:44.181Z,23.89
2022-11-16T09:31:11.948Z,23.07
2022-11-16T09:33:39.751Z,21.71
2022-11-16T09:36:08.783Z,21.65
2022-11-16T09:39:03.553Z,22.92
2022-11-16T09:41:43.022Z,24.08
2022-11-16T09:44:16.588Z,23.96
2022-11-16T09:46:47.706Z,25.70
2022-11-16T09:49:19.100Z,26.17
2022-11-16T09:51:49.408Z,23.21
2022-11-16T09:54:20.084Z,23.97
2022-11-16T09:56:50.057Z,22.98
2022-11-16T09:59:22.754Z,22.26
2022-11-16T10:01:53.654Z,21.14
2022-11-16T10:04:25.191Z,23.27
2022-11-16T10:06:57.124Z,22.82
2022-11-16T10:09:26.158Z,25.78
2022-11-16T10:11:57.308Z,24.32
2022-11-16T10:14:32.759Z,23.83
2022-11-16T10:17:07.052Z,24.67
2022-11-16T10:19:41.904Z,22.27
2022-11-16T10:22:15.151Z,22.08
2022-11-16T10:24:57.437Z,20.45
2022-11-16T10:27:35.225Z,21.49
2022-11-16T10:30:08.640Z,23.00
2022-11-16T10:32:38.114Z,22.59
2022-11-16T10:35:09.127Z,22.93
2022-11-16T10:37:39.048Z,22.64
2022-11-16T10:40:16.354Z,21.02
2022-11-16T10:42:45.325Z,18.50
2022-11-16T10:45:20.540Z,16.14
2022-11-16T10:47:51.079Z,15.45
2022-11-16T10:50:31.684Z,15.48
2022-11-16T10:52:59.768Z,16.01
2022-11-16T10:55:28.606Z,17.56
2022-11-16T10:57:57.861Z,18.09
2022-11-16T11:00:41.034Z,22.63
2022-11-16T11:03:10.799Z,20.35
2022-11-16T11:05:47.256Z,19.03
2022-11-16T11:08:25.073Z,17.35
2022-11-16T11:10:58.602Z,17.02
2022-11-16T11:13:27.252Z,17.90
2022-11-16T11:16:14.112Z,21.58
2022-11-16T11:18:42.053Z,21.53
2022-11-16T11:21:14.707Z,18.19
2022-11-16T11:23:45.099Z,16.96
2022-11-16T11:26:29.422Z,16.55
2022-11-16T11:29:02.497Z,17.59
2022-11-16T11:31:34.509Z,19.84
2022-11-16T11:34:06.631Z,17.17
2022-11-16T11:36:38.405Z,15.77
2022-11-16T11:39:08.258Z,15.43
2022-11-16T11:41:37.464Z,15.11
2022-11-16T11:44:06.789Z,14.92
2022-11-16T11:47:18.181Z,14.82
2022-11-16T11:49:33.421Z,14.02
2022-11-16T11:52:04.193Z,13.77
2022-11-16T11:54:34.131Z,14.81
2022-11-16T11:57:03.031Z,18.34
2022-11-16T11:59:30.851Z,19.30
2022-11-16T12:02:18.129Z,21.33
2022-11-16T12:05:03.759Z,23.46
2022-11-16T12:07:39.908Z,25.67
2022-11-16T12:10:13.515Z,22.56
2022-11-16T12:12:49.320Z,22.61
2022-11-16T12:15:30.745Z,21.90
2022-11-16T12:18:07.848Z,19.22
2022-11-16T12:20:40.187Z,17.33
2022-11-16T12:23:18.087Z,16.69
2022-11-16T12:25:49.787Z,16.37
2022-11-16T12:28:24.125Z,15.45
2022-11-16T12:31:08.913Z,15.14
2022-11-16T12:33:45.259Z,14.70
2022-11-16T12:36:21.332Z,14.47
2022-11-16T12:38:57.641Z,14.28
2022-11-16T12:41:34.570Z,14.20
2022-11-16T12:44:05.134Z,14.27
2022-11-16T12:46:39.884Z,14.69
2022-11-16T12:49:35.076Z,15.15
2022-11-16T12:52:13.951Z,15.06
2022-11-16T12:55:25.394Z,14.75
2022-11-16T12:58:03.485Z,14.38
2022-11-16T13:00:38.823Z,14.42
2022-11-16T13:03:15.747Z,14.53
2022-11-16T13:05:48.099Z,14.74
2022-11-16T13:08:20.554Z,14.61
2022-11-16T13:10:51.826Z,14.58
2022-11-16T13:13:39.581Z,14.75
2022-11-16T13:16:08.591Z,14.90
2022-11-16T13:18:39.576Z,14.78
2022-11-16T13:21:12.052Z,14.49
2022-11-16T13:23:48.174Z,15.03
2022-11-16T13:26:22.165Z,17.28
2022-11-16T13:28:55.628Z,19.38
2022-11-16T13:31:28.971Z,20.75
2022-11-16T13:33:58.710Z,21.48
2022-11-16T13:36:46.262Z,21.95
2022-11-16T13:39:22.616Z,21.95
2022-11-16T13:41:51.466Z,22.20
2022-11-16T13:44:27.075Z,22.57
2022-11-16T13:46:59.556Z,21.30
2022-11-16T13:49:32.001Z,19.51
2022-11-16T13:52:17.272Z,20.29
2022-11-16T13:54:54.172Z,19.08
2022-11-16T13:57:25.147Z,19.11
2022-11-16T14:00:00.154Z,17.09
2022-11-16T14:02:30.226Z,15.54
2022-11-16T14:04:59.268Z,14.61
2022-11-16T14:07:31.959Z,14.23
2022-11-16T14:10:01.810Z,14.04
2022-11-16T14:12:59.312Z,13.85
2022-11-16T14:15:28.675Z,13.59
2022-11-16T14:17:58.510Z,13.66
2022-11-16T14:20:41.539Z,13.49
2022-11-16T14:23:22.599Z,13.49
2022-11-16T14:25:57.442Z,13.47
2022-11-16T14:28:34.382Z,13.44
2022-11-16T14:31:10.971Z,13.23
2022-11-16T14:33:39.962Z,13.15
2022-11-16T14:36:09.303Z,13.03
2022-11-16T14:38:38.579Z,12.98
2022-11-16T14:41:14.085Z,12.89
2022-11-16T14:43:49.021Z,12.88
2022-11-16T14:46:21.269Z,12.85
2022-11-16T14:48:50.209Z,12.95
2022-11-16T14:51:21.485Z,12.87
2022-11-16T14:53:51.470Z,12.86
2022-11-16T14:56:21.189Z,12.79
2022-11-16T14:58:53.040Z,12.72
2022-11-16T15:01:23.224Z,12.65
2022-11-16T15:03:54.338Z,12.61
2022-11-16T15:06:26.246Z,12.61
2022-11-16T15:08:56.082Z,12.62
2022-11-16T15:11:48.078Z,12.56
2022-11-16T15:14:18.780Z,12.52
2022-11-16T15:16:50.232Z,12.63
2022-11-16T15:19:18.222Z,12.68
2022-11-16T15:21:51.150Z,12.70
2022-11-16T15:24:30.494Z,12.48
2022-11-16T15:27:03.291Z,12.35
2022-11-16T15:29:31.415Z,12.12
2022-11-16T15:31:59.574Z,11.94
2022-11-16T15:34:31.963Z,11.87
2022-11-16T15:36:59.806Z,11.85
2022-11-16T15:39:33.227Z,11.77
2022-11-16T15:42:04.200Z,11.73
2022-11-16T15:44:32.802Z,11.73
2022-11-16T15:47:00.751Z,11.75
2022-11-16T15:49:30.067Z,11.60
2022-11-16T15:51:58.538Z,11.44
2022-11-16T15:54:27.461Z,11.24
2022-11-16T15:56:56.556Z,11.17
2022-11-16T15:59:28.668Z,11.03
2022-11-16T16:01:57.199Z,10.99
2022-11-16T16:04:26.797Z,10.83
2022-11-16T16:06:55.724Z,10.71
2022-11-16T16:09:25.410Z,10.67
2022-11-16T16:11:53.929Z,10.66
2022-11-16T16:14:23.013Z,10.73
2022-11-16T16:16:52.634Z,10.74
2022-11-16T16:19:34.477Z,10.70
2022-11-16T16:22:02.956Z,10.54
2022-11-16T16:24:38.522Z,10.51
2022-11-16T16:27:13.539Z,10.38
2022-11-16T16:29:41.516Z,10.41
2022-11-16T16:32:13.254Z,10.37
2022-11-16T16:34:42.392Z,10.45
2022-11-16T16:37:12.222Z,10.42
2022-11-16T16:39:40.954Z,10.45
2022-11-16T16:42:10.358Z,10.52
2022-11-16T16:44:38.235Z,10.64
2022-11-16T16:47:06.457Z,10.67
2022-11-16T16:49:35.739Z,10.74
2022-11-16T16:52:04.116Z,10.80
2022-11-16T16:54:31.995Z,10.75
2022-11-16T16:57:01.335Z,10.72
2022-11-16T16:59:30.002Z,10.79
2022-11-16T17:01:57.858Z,10.76
2022-11-16T17:04:26.322Z,10.82
2022-11-16T17:06:55.502Z,10.85
2022-11-16T17:09:23.950Z,10.88
2022-11-16T17:11:51.964Z,10.86
2022-11-16T17:14:24.231Z,10.92
2022-11-16T17:16:52.302Z,10.94
2022-11-16T17:19:22.785Z,10.87
2022-11-16T17:21:52.046Z,11.10
2022-11-16T17:24:21.331Z,10.98
2022-11-16T17:26:49.311Z,10.90
2022-11-16T17:29:17.700Z,10.83
2022-11-16T17:31:47.492Z,10.83
2022-11-16T17:34:15.487Z,10.76
2022-11-16T17:36:43.419Z,10.73
2022-11-16T17:39:11.324Z,10.64
2022-11-16T17:41:40.647Z,10.54
2022-11-16T17:44:08.660Z,10.49
2022-11-16T17:46:36.471Z,10.46
2022-11-16T17:49:04.267Z,10.39
2022-11-16T17:51:32.083Z,10.29
2022-11-16T17:54:00.121Z,10.38
2022-11-16T17:56:28.918Z,10.34
2022-11-16T17:58:59.027Z,10.32
2022-11-16T18:01:27.848Z,10.26
2022-11-16T18:03:55.757Z,10.29
2022-11-16T18:06:24.986Z,10.19
2022-11-16T18:08:53.336Z,10.25
2022-11-16T18:11:22.124Z,10.14
2022-11-16T18:13:53.343Z,10.22
2022-11-16T18:16:23.456Z,10.18
2022-11-16T18:18:56.728Z,10.24
2022-11-16T18:21:24.851Z,10.27
2022-11-16T18:23:52.814Z,10.22
2022-11-16T18:26:21.506Z,10.26
2022-11-16T18:28:49.655Z,10.15
2022-11-16T18:31:18.469Z,10.08
2022-11-16T18:33:49.044Z,9.91
2022-11-16T18:36:17.477Z,9.83
2022-11-16T18:38:45.407Z,9.74
2022-11-16T18:41:16.696Z,9.53
2022-11-16T18:43:49.127Z,9.37
2022-11-16T18:46:17.390Z,9.28
2022-11-16T18:48:46.582Z,9.18
2022-11-16T18:51:17.036Z,9.30
2022-11-16T18:53:44.925Z,9.18
2022-11-16T18:56:12.992Z,9.23
2022-11-16T18:58:50.735Z,9.20
2022-11-16T19:01:21.219Z,9.05
2022-11-16T19:03:49.077Z,9.06
2022-11-16T19:06:18.437Z,8.98
2022-11-16T19:08:50.424Z,9.00
2022-11-16T19:11:22.643Z,8.99
2022-11-16T19:13:52.995Z,8.95
2022-11-16T19:16:20.950Z,8.86
2022-11-16T19:18:48.732Z,8.83
2022-11-16T19:21:19.362Z,8.82
2022-11-16T19:23:48.293Z,8.72
2022-11-16T19:26:17.040Z,8.73
2022-11-16T19:28:45.438Z,8.80
2022-11-16T19:31:14.525Z,8.76
2022-11-16T19:33:42.876Z,8.79
2022-11-16T19:36:12.118Z,8.79
2022-11-16T19:38:41.684Z,8.76
2022-11-16T19:41:10.991Z,8.71
2022-11-16T19:43:39.243Z,8.69
2022-11-16T19:46:08.160Z,8.58
2022-11-16T19:48:36.430Z,8.52
2022-11-16T19:51:05.211Z,8.51
2022-11-16T19:53:33.665Z,8.59
2022-11-16T19:56:03.409Z,8.61
2022-11-16T19:58:32.047Z,8.60
2022-11-16T20:01:04.059Z,8.54
2022-11-16T20:03:32.733Z,8.58
2022-11-16T20:06:10.492Z,8.60
2022-11-16T20:08:38.598Z,8.52
2022-11-16T20:11:15.719Z,8.57
2022-11-16T20:13:43.858Z,8.59
2022-11-16T20:16:12.970Z,8.55
2022-11-16T20:18:41.775Z,8.62
2022-11-16T20:21:11.821Z,8.56
2022-11-16T20:23:39.638Z,8.65
2022-11-16T20:26:08.537Z,8.67
2022-11-16T20:28:38.395Z,8.58
2022-11-16T20:31:08.820Z,8.58
2022-11-16T20:33:37.143Z,8.55
2022-11-16T20:36:06.636Z,8.64
2022-11-16T20:38:34.884Z,8.69
2022-11-16T20:41:09.961Z,8.72
2022-11-16T20:43:40.226Z,8.73
2022-11-16T20:46:08.488Z,8.78
2022-11-16T20:48:36.398Z,8.78
2022-11-16T20:51:04.678Z,8.77
2022-11-16T20:53:33.218Z,8.87
2022-11-16T20:56:02.498Z,8.82
2022-11-16T20:58:30.462Z,8.91
2022-11-16T21:01:03.642Z,8.90
2022-11-16T21:03:33.658Z,8.90
2022-11-16T21:06:01.879Z,8.99
2022-11-16T21:08:30.599Z,9.07
2022-11-16T21:10:58.873Z,9.17
2022-11-16T21:13:44.579Z,9.20
2022-11-16T21:16:16.214Z,9.31
2022-11-16T21:18:45.662Z,9.32
2022-11-16T21:21:17.263Z,9.33
2022-11-16T21:23:51.711Z,9.32
2022-11-16T21:26:21.050Z,9.26
2022-11-16T21:28:49.605Z,9.32
2022-11-16T21:31:20.928Z,9.37
2022-11-16T21:33:49.552Z,9.34
2022-11-16T21:36:18.558Z,9.38
2022-11-16T21:38:46.822Z,9.38
2022-11-16T21:41:15.554Z,9.29
2022-11-16T21:43:44.240Z,9.28
2022-11-16T21:46:13.048Z,9.25
2022-11-16T21:48:42.949Z,9.19
2022-11-16T21:51:12.273Z,9.18
2022-11-16T21:53:40.882Z,9.16
2022-11-16T21:56:11.596Z,9.11
2022-11-16T21:58:40.243Z,9.02
2022-11-16T22:01:08.845Z,8.99
2022-11-16T22:03:37.140Z,9.00
2022-11-16T22:06:25.329Z,9.06
2022-11-16T22:08:53.636Z,9.09
2022-11-16T22:11:22.081Z,9.07
2022-11-16T22:13:50.595Z,9.10
2022-11-16T22:16:19.952Z,9.10
2022-11-16T22:18:48.186Z,9.32
2022-11-16T22:21:17.572Z,9.32
2022-11-16T22:23:45.491Z,9.38
2022-11-16T22:26:14.481Z,9.39
2022-11-16T22:28:42.430Z,9.48
2022-11-16T22:31:11.535Z,9.42
2022-11-16T22:33:40.002Z,9.41
2022-11-16T22:36:09.209Z,9.45
2022-11-16T22:38:38.372Z,9.57
2022-11-16T22:41:06.486Z,9.62
2022-11-16T22:43:35.849Z,9.67
2022-11-16T22:46:06.212Z,9.68
2022-11-16T22:48:35.001Z,9.74
2022-11-16T22:51:03.675Z,9.78
2022-11-16T22:53:31.553Z,9.87
2022-11-16T22:56:05.367Z,9.89
2022-11-16T22:58:33.316Z,9.95
2022-11-16T23:01:01.608Z,10.08
2022-11-16T23:03:29.712Z,10.10
2022-11-16T23:05:57.672Z,10.13
2022-11-16T23:08:26.305Z,10.08
2022-11-16T23:11:18.264Z,10.12
2022-11-16T23:14:05.250Z,10.13
2022-11-16T23:16:33.794Z,10.13
2022-11-16T23:19:01.892Z,10.13
2022-11-16T23:21:47.544Z,10.19
2022-11-16T23:24:33.966Z,10.19
2022-11-16T23:27:20.857Z,10.22
2022-11-16T23:29:50.304Z,10.29
2022-11-16T23:32:18.072Z,10.31
2022-11-16T23:34:45.863Z,10.32
2022-11-16T23:37:13.658Z,10.28
2022-11-16T23:39:41.452Z,10.32
2022-11-16T23:42:27.777Z,10.24
2022-11-16T23:44:57.103Z,10.26
2022-11-16T23:47:24.901Z,10.29
2022-11-16T23:49:57.190Z,10.30
2022-11-16T23:52:25.164Z,10.34
2022-11-16T23:54:53.846Z,10.44
2022-11-16T23:57:24.280Z,10.38
2022-11-16T23:59:52.084Z,10.44
